createdAt,value
2023-08-14T00:00:08.847Z,202.34
2023-08-14T00:01:08.825Z,200.41
2023-08-14T00:02:08.835Z,202.48
2023-08-14T00:03:08.938Z,198.56
2023-08-14T00:04:08.875Z,201.58
2023-08-14T00:05:08.925Z,200.63
2023-08-14T00:06:08.947Z,201.18
2023-08-14T00:07:08.946Z,205.07
2023-08-14T00:08:08.977Z,206.15
2023-08-14T00:09:09.005Z,202.61
2023-08-14T00:10:09.014Z,202.42
2023-08-14T00:11:09.009Z,201.65
2023-08-14T00:12:09.047Z,201.73
2023-08-14T00:13:09.036Z,201.56
2023-08-14T00:14:09.059Z,202.54
2023-08-14T00:15:09.116Z,200.22
2023-08-14T00:16:09.064Z,199.68
2023-08-14T00:17:09.078Z,199.64
2023-08-14T00:18:09.157Z,197.60
2023-08-14T00:19:09.165Z,200.08
2023-08-14T00:20:09.108Z,203.88
2023-08-14T00:21:09.109Z,197.23
2023-08-14T00:22:09.113Z,198.48
2023-08-14T00:23:09.089Z,197.07
2023-08-14T00:24:09.099Z,197.20
2023-08-14T00:25:09.085Z,198.77
2023-08-14T00:26:09.107Z,198.63
2023-08-14T00:27:09.091Z,198.82
2023-08-14T00:28:09.074Z,198.07
2023-08-14T00:29:09.090Z,199.54
2023-08-14T00:30:09.059Z,198.68
2023-08-14T00:31:09.103Z,196.81
2023-08-14T00:32:09.133Z,197.16
2023-08-14T00:33:09.100Z,197.01
2023-08-14T00:34:09.068Z,196.76
2023-08-14T00:35:09.093Z,197.69
2023-08-14T00:36:09.145Z,198.59
2023-08-14T00:37:09.119Z,196.71
2023-08-14T00:38:09.085Z,197.02
2023-08-14T00:39:09.149Z,194.36
2023-08-14T00:40:09.112Z,195.58
2023-08-14T00:41:09.202Z,194.73
2023-08-14T00:42:09.148Z,197.01
2023-08-14T00:43:09.124Z,195.94
2023-08-14T00:44:09.126Z,195.57
2023-08-14T00:45:09.145Z,194.64
2023-08-14T00:46:09.160Z,196.13
2023-08-14T00:47:09.103Z,195.12
2023-08-14T00:48:09.133Z,194.13
2023-08-14T00:49:09.100Z,193.14
2023-08-14T00:50:09.183Z,191.91
2023-08-14T00:51:09.160Z,194.60
2023-08-14T00:52:09.123Z,192.90
2023-08-14T00:53:09.131Z,192.55
2023-08-14T00:54:09.117Z,193.22
2023-08-14T00:55:09.145Z,194.40
2023-08-14T00:56:09.097Z,193.45
2023-08-14T00:57:09.119Z,194.29
2023-08-14T00:58:09.117Z,195.02
2023-08-14T00:59:09.104Z,193.46
2023-08-14T01:00:09.096Z,194.82
2023-08-14T01:01:09.141Z,194.32
2023-08-14T01:02:09.135Z,192.68
2023-08-14T01:03:09.148Z,194.17
2023-08-14T01:04:09.199Z,191.19
2023-08-14T01:05:09.093Z,191.83
2023-08-14T01:06:09.082Z,193.00
2023-08-14T01:07:09.059Z,194.37
2023-08-14T01:08:09.099Z,194.50
2023-08-14T01:09:09.080Z,192.80
2023-08-14T01:10:09.067Z,194.43
2023-08-14T01:11:09.080Z,194.97
2023-08-14T01:12:09.063Z,192.40
2023-08-14T01:13:09.103Z,194.52
2023-08-14T01:14:09.079Z,194.34
2023-08-14T01:15:09.084Z,196.19
2023-08-14T01:16:09.116Z,192.26
2023-08-14T01:17:09.045Z,193.56
2023-08-14T01:18:09.102Z,191.85
2023-08-14T01:19:09.091Z,194.16
2023-08-14T01:20:09.048Z,194.44
2023-08-14T01:21:09.087Z,193.53
2023-08-14T01:22:09.129Z,192.52
2023-08-14T01:23:09.063Z,191.09
2023-08-14T01:24:09.127Z,192.05
2023-08-14T01:25:09.097Z,193.68
2023-08-14T01:26:09.123Z,190.57
2023-08-14T01:27:09.082Z,189.46
2023-08-14T01:28:09.090Z,194.48
2023-08-14T01:29:09.085Z,192.60
2023-08-14T01:30:09.131Z,191.23
2023-08-14T01:31:09.106Z,193.64
2023-08-14T01:32:09.107Z,189.78
2023-08-14T01:33:09.201Z,192.78
2023-08-14T01:34:09.100Z,190.35
2023-08-14T01:35:09.082Z,194.56
2023-08-14T01:36:09.093Z,188.99
2023-08-14T01:37:09.169Z,186.19
2023-08-14T01:38:09.087Z,188.45
2023-08-14T01:39:09.107Z,190.52
2023-08-14T01:40:09.168Z,188.43
2023-08-14T01:41:09.116Z,187.62
2023-08-14T01:42:09.153Z,189.12
2023-08-14T01:43:09.133Z,191.59
2023-08-14T01:44:09.132Z,190.08
2023-08-14T01:45:09.135Z,190.53
2023-08-14T01:46:09.160Z,189.26
2023-08-14T01:47:09.154Z,187.52
2023-08-14T01:48:09.139Z,188.33
2023-08-14T01:49:09.140Z,188.48
2023-08-14T01:50:09.156Z,189.85
2023-08-14T01:51:09.177Z,186.85
2023-08-14T01:52:09.219Z,186.14
2023-08-14T01:53:09.187Z,186.22
2023-08-14T01:54:09.193Z,186.72
2023-08-14T01:55:09.202Z,188.83
2023-08-14T01:56:09.195Z,189.31
2023-08-14T01:57:09.241Z,187.44
2023-08-14T01:58:09.227Z,191.79
2023-08-14T01:59:09.224Z,186.62
2023-08-14T02:00:09.260Z,186.68
2023-08-14T02:01:09.246Z,186.67
2023-08-14T02:02:09.229Z,189.02
2023-08-14T02:03:09.324Z,188.23
2023-08-14T02:04:09.243Z,187.67
2023-08-14T02:05:09.234Z,185.72
2023-08-14T02:06:09.276Z,188.09
2023-08-14T02:07:09.283Z,184.47
2023-08-14T02:08:09.295Z,187.23
2023-08-14T02:09:09.314Z,187.49
2023-08-14T02:10:09.288Z,185.03
2023-08-14T02:11:09.304Z,187.09
2023-08-14T02:12:09.337Z,187.01
2023-08-14T02:13:09.313Z,186.35
2023-08-14T02:14:09.353Z,184.87
2023-08-14T02:15:09.362Z,185.63
2023-08-14T02:16:09.387Z,187.73
2023-08-14T02:17:09.378Z,186.27
2023-08-14T02:18:09.486Z,183.26
2023-08-14T02:19:09.416Z,186.68
2023-08-14T02:20:09.425Z,185.11
2023-08-14T02:21:09.431Z,184.14
2023-08-14T02:22:09.467Z,189.08
2023-08-14T02:23:09.429Z,185.67
2023-08-14T02:24:09.477Z,187.45
2023-08-14T02:25:09.482Z,187.09
2023-08-14T02:26:09.500Z,187.67
2023-08-14T02:27:09.549Z,187.17
2023-08-14T02:28:09.526Z,184.36
2023-08-14T02:29:09.552Z,184.39
2023-08-14T02:30:09.514Z,183.41
2023-08-14T02:31:09.578Z,182.86
2023-08-14T02:32:09.549Z,185.78
2023-08-14T02:33:09.590Z,183.66
2023-08-14T02:34:09.581Z,184.26
2023-08-14T02:35:09.575Z,186.81
2023-08-14T02:36:09.565Z,184.01
2023-08-14T02:37:09.586Z,182.28
2023-08-14T02:38:09.629Z,182.39
2023-08-14T02:39:09.623Z,184.07
2023-08-14T02:40:09.653Z,185.42
2023-08-14T02:41:09.624Z,182.56
2023-08-14T02:42:09.638Z,181.74
2023-08-14T02:43:09.710Z,181.84
2023-08-14T02:44:09.765Z,180.79
2023-08-14T02:45:09.680Z,179.37
2023-08-14T02:46:09.762Z,184.14
2023-08-14T02:47:09.721Z,182.16
2023-08-14T02:48:09.777Z,179.05
2023-08-14T02:49:09.728Z,180.89
2023-08-14T02:50:09.741Z,179.48
2023-08-14T02:51:09.793Z,179.64
2023-08-14T02:52:09.759Z,179.11
2023-08-14T02:53:10.104Z,178.95
2023-08-14T02:54:09.794Z,177.07
2023-08-14T02:55:09.867Z,180.01
2023-08-14T02:56:09.842Z,180.07
2023-08-14T02:57:09.857Z,179.34
2023-08-14T02:58:09.871Z,176.91
2023-08-14T02:59:09.896Z,177.64
2023-08-14T03:00:09.917Z,178.61
2023-08-14T03:01:09.938Z,178.95
2023-08-14T03:02:09.967Z,175.94
2023-08-14T03:03:10.004Z,175.29
2023-08-14T03:04:09.977Z,176.00
2023-08-14T03:05:09.976Z,178.46
2023-08-14T03:06:09.988Z,175.85
2023-08-14T03:07:09.993Z,175.12
2023-08-14T03:08:10.020Z,174.12
2023-08-14T03:09:10.027Z,175.76
2023-08-14T03:10:10.064Z,172.72
2023-08-14T03:11:10.061Z,172.63
2023-08-14T03:12:10.086Z,173.78
2023-08-14T03:13:10.103Z,175.68
2023-08-14T03:14:10.139Z,172.29
2023-08-14T03:15:10.140Z,173.61
2023-08-14T03:16:10.174Z,176.83
2023-08-14T03:17:10.176Z,176.77
2023-08-14T03:18:10.200Z,174.80
2023-08-14T03:19:10.218Z,173.40
2023-08-14T03:20:10.297Z,171.93
2023-08-14T03:21:10.253Z,172.34
2023-08-14T03:22:10.283Z,172.89
2023-08-14T03:23:10.304Z,174.42
2023-08-14T03:24:10.320Z,174.19
2023-08-14T03:25:10.385Z,173.66
2023-08-14T03:26:10.400Z,174.23
2023-08-14T03:27:10.425Z,170.16
2023-08-14T03:28:10.433Z,172.05
2023-08-14T03:29:10.436Z,170.81
2023-08-14T03:30:10.471Z,172.11
2023-08-14T03:31:10.629Z,172.31
2023-08-14T03:32:10.532Z,171.71
2023-08-14T03:33:10.591Z,171.53
2023-08-14T03:34:10.605Z,171.51
2023-08-14T03:35:10.550Z,174.64
2023-08-14T03:36:10.599Z,172.56
2023-08-14T03:37:12.601Z,173.22
2023-08-14T03:38:10.679Z,172.48
2023-08-14T03:39:10.652Z,171.07
2023-08-14T03:40:10.670Z,169.30
2023-08-14T03:41:10.690Z,171.12
2023-08-14T03:42:10.708Z,169.49
2023-08-14T03:43:10.762Z,171.30
2023-08-14T03:44:10.765Z,168.70
2023-08-14T03:45:10.833Z,169.21
2023-08-14T03:46:10.833Z,169.85
2023-08-14T03:47:10.867Z,168.45
2023-08-14T03:48:10.863Z,169.47
2023-08-14T03:49:10.909Z,167.72
2023-08-14T03:50:10.923Z,168.62
2023-08-14T03:51:10.952Z,169.41
2023-08-14T03:52:10.981Z,169.81
2023-08-14T03:53:11.020Z,170.17
2023-08-14T03:54:11.043Z,168.54
2023-08-14T03:55:11.086Z,167.30
2023-08-14T03:56:11.124Z,166.13
2023-08-14T03:57:11.138Z,166.87
2023-08-14T03:58:11.144Z,164.81
2023-08-14T03:59:11.203Z,165.70
2023-08-14T04:00:11.239Z,165.94
2023-08-14T04:01:11.270Z,165.27
2023-08-14T04:02:11.344Z,168.88
2023-08-14T04:03:11.431Z,166.70
2023-08-14T04:04:11.373Z,163.89
2023-08-14T04:05:11.379Z,164.60
2023-08-14T04:06:11.417Z,164.11
2023-08-14T04:07:11.458Z,164.33
2023-08-14T04:08:11.452Z,162.85
2023-08-14T04:09:11.493Z,162.78
2023-08-14T04:10:11.515Z,161.35
2023-08-14T04:11:11.536Z,165.47
2023-08-14T04:12:11.588Z,165.45
2023-08-14T04:13:11.607Z,165.03
2023-08-14T04:14:11.631Z,165.38
2023-08-14T04:15:11.648Z,162.09
2023-08-14T04:16:11.719Z,162.65
2023-08-14T04:17:11.699Z,162.00
2023-08-14T04:18:11.847Z,162.32
2023-08-14T04:19:11.756Z,160.54
2023-08-14T04:20:11.795Z,162.23
2023-08-14T04:21:11.824Z,159.99
2023-08-14T04:22:11.832Z,159.64
2023-08-14T04:23:11.873Z,160.40
2023-08-14T04:24:11.923Z,159.38
2023-08-14T04:25:11.943Z,161.23
2023-08-14T04:26:11.978Z,160.28
2023-08-14T04:27:11.986Z,159.84
2023-08-14T04:28:12.004Z,157.86
2023-08-14T04:29:12.036Z,157.39
2023-08-14T04:30:12.090Z,161.54
2023-08-14T04:31:12.081Z,158.19
2023-08-14T04:32:12.130Z,157.99
2023-08-14T04:33:12.133Z,157.23
2023-08-14T04:34:12.169Z,158.05
2023-08-14T04:35:12.189Z,159.20
2023-08-14T04:36:12.218Z,157.71
2023-08-14T04:37:12.253Z,156.08
2023-08-14T04:38:12.268Z,158.74
2023-08-14T04:39:12.317Z,160.33
2023-08-14T04:40:12.326Z,158.47
2023-08-14T04:41:12.353Z,156.87
2023-08-14T04:42:12.385Z,157.72
2023-08-14T04:43:12.418Z,157.48
2023-08-14T04:44:12.457Z,156.22
2023-08-14T04:45:12.507Z,155.35
2023-08-14T04:46:12.693Z,158.33
2023-08-14T04:47:12.577Z,156.11
2023-08-14T04:48:12.654Z,157.42
2023-08-14T04:49:12.646Z,155.58
2023-08-14T04:50:12.698Z,156.25
2023-08-14T04:51:12.702Z,156.00
2023-08-14T04:52:12.733Z,155.51
2023-08-14T04:53:12.784Z,154.57
2023-08-14T04:54:12.812Z,155.89
2023-08-14T04:55:12.833Z,156.24
2023-08-14T04:56:12.868Z,154.32
2023-08-14T04:57:12.908Z,155.20
2023-08-14T04:58:12.925Z,155.16
2023-08-14T04:59:13.037Z,154.27
2023-08-14T05:00:13.076Z,154.90
2023-08-14T05:01:13.097Z,154.71
2023-08-14T05:02:13.096Z,154.88
2023-08-14T05:03:13.110Z,154.61
2023-08-14T05:04:13.193Z,152.46
2023-08-14T05:05:13.167Z,152.59
2023-08-14T05:06:13.207Z,153.94
2023-08-14T05:07:13.311Z,155.28
2023-08-14T05:08:13.292Z,152.34
2023-08-14T05:09:25.580Z,151.56
2023-08-14T05:10:14.292Z,151.81
2023-08-14T05:11:13.286Z,152.02
2023-08-14T05:12:13.287Z,152.11
2023-08-14T05:13:13.263Z,154.14
2023-08-14T05:14:13.258Z,154.67
2023-08-14T05:15:13.260Z,152.33
2023-08-14T05:16:13.260Z,151.25
2023-08-14T05:17:13.242Z,151.44
2023-08-14T05:18:13.223Z,151.92
2023-08-14T05:19:13.246Z,151.05
2023-08-14T05:20:13.220Z,151.21
2023-08-14T05:21:13.217Z,152.62
2023-08-14T05:22:13.300Z,151.17
2023-08-14T05:23:13.193Z,150.63
2023-08-14T05:24:13.186Z,148.08
2023-08-14T05:25:13.217Z,150.73
2023-08-14T05:26:13.169Z,153.62
2023-08-14T05:27:13.182Z,155.01
2023-08-14T05:28:13.195Z,153.23
2023-08-14T05:29:13.200Z,154.15
2023-08-14T05:30:13.144Z,156.31
2023-08-14T05:31:13.162Z,157.07
2023-08-14T05:32:13.236Z,152.40
2023-08-14T05:33:13.176Z,154.09
2023-08-14T05:34:13.180Z,155.19
2023-08-14T05:35:13.216Z,158.65
2023-08-14T05:36:13.204Z,155.95
2023-08-14T05:37:13.209Z,154.48
2023-08-14T05:38:13.214Z,154.86
2023-08-14T05:39:13.258Z,155.22
2023-08-14T05:40:13.220Z,154.32
2023-08-14T05:41:13.235Z,155.27
2023-08-14T05:42:13.267Z,156.53
2023-08-14T05:43:13.254Z,159.49
2023-08-14T05:44:13.250Z,155.42
2023-08-14T05:45:13.275Z,154.78
2023-08-14T05:46:13.262Z,155.36
2023-08-14T05:47:13.249Z,154.38
2023-08-14T05:48:13.247Z,155.31
2023-08-14T05:49:13.228Z,159.25
2023-08-14T05:50:13.257Z,159.44
2023-08-14T05:51:13.222Z,160.43
2023-08-14T05:52:13.261Z,159.27
2023-08-14T05:53:13.241Z,157.75
2023-08-14T05:54:13.261Z,157.18
2023-08-14T05:55:13.241Z,161.89
2023-08-14T05:56:13.272Z,155.99
2023-08-14T05:57:13.255Z,158.63
2023-08-14T05:58:13.247Z,157.21
2023-08-14T05:59:13.253Z,156.44
2023-08-14T06:00:13.264Z,157.07
2023-08-14T06:01:13.286Z,160.01
2023-08-14T06:02:13.240Z,160.58
2023-08-14T06:03:15.210Z,159.97
2023-08-14T06:04:14.273Z,160.19
2023-08-14T06:05:13.231Z,160.55
2023-08-14T06:06:13.238Z,160.40
2023-08-14T06:07:13.220Z,159.41
2023-08-14T06:08:13.196Z,160.45
2023-08-14T06:09:13.204Z,162.00
2023-08-14T06:10:13.202Z,161.11
2023-08-14T06:11:13.171Z,160.72
2023-08-14T06:12:13.160Z,163.95
2023-08-14T06:13:13.172Z,162.44
2023-08-14T06:14:13.150Z,162.20
2023-08-14T06:15:13.153Z,159.48
2023-08-14T06:16:13.243Z,160.25
2023-08-14T06:17:13.147Z,160.11
2023-08-14T06:18:13.148Z,157.74
2023-08-14T06:19:13.135Z,160.16
2023-08-14T06:20:13.128Z,158.28
2023-08-14T06:21:13.114Z,160.93
2023-08-14T06:22:13.165Z,160.74
2023-08-14T06:23:13.148Z,160.80
2023-08-14T06:24:13.103Z,160.80
2023-08-14T06:25:13.098Z,161.88
2023-08-14T06:26:13.090Z,161.86
2023-08-14T06:27:13.106Z,162.26
2023-08-14T06:28:13.194Z,165.17
2023-08-14T06:29:13.226Z,164.31
2023-08-14T06:30:13.308Z,163.31
2023-08-14T06:31:13.390Z,164.57
2023-08-14T06:32:13.431Z,163.66
2023-08-14T06:33:15.140Z,166.06
2023-08-14T06:34:13.502Z,165.71
2023-08-14T06:35:13.578Z,168.80
2023-08-14T06:36:13.615Z,167.03
2023-08-14T06:37:13.674Z,167.67
2023-08-14T06:38:13.764Z,167.48
2023-08-14T06:39:13.757Z,167.76
2023-08-14T06:40:13.859Z,168.70
2023-08-14T06:41:13.875Z,168.03
2023-08-14T06:42:13.988Z,171.21
2023-08-14T06:43:13.952Z,170.05
2023-08-14T06:44:14.004Z,171.59
2023-08-14T06:45:14.039Z,172.12
2023-08-14T06:46:14.150Z,172.53
2023-08-14T06:47:14.122Z,172.29
2023-08-14T06:48:14.179Z,171.03
2023-08-14T06:49:14.225Z,172.29
2023-08-14T06:50:14.280Z,172.69
2023-08-14T06:51:14.314Z,174.08
2023-08-14T06:52:14.311Z,173.58
2023-08-14T06:53:14.363Z,174.27
2023-08-14T06:54:14.394Z,173.86
2023-08-14T06:55:14.387Z,175.23
2023-08-14T06:56:14.399Z,177.25
2023-08-14T06:57:14.476Z,177.11
2023-08-14T06:58:14.437Z,175.77
2023-08-14T06:59:14.501Z,178.65
2023-08-14T07:00:14.561Z,177.35
2023-08-14T07:01:14.611Z,177.10
2023-08-14T07:02:14.525Z,176.79
2023-08-14T07:03:14.690Z,178.47
2023-08-14T07:04:14.553Z,176.73
2023-08-14T07:05:14.615Z,177.91
2023-08-14T07:06:14.632Z,177.31
2023-08-14T07:07:14.602Z,177.37
2023-08-14T07:08:14.597Z,179.77
2023-08-14T07:09:14.587Z,180.15
2023-08-14T07:10:14.621Z,180.04
2023-08-14T07:11:14.634Z,179.75
2023-08-14T07:12:14.637Z,181.64
2023-08-14T07:13:14.649Z,181.42
2023-08-14T07:14:14.754Z,180.54
2023-08-14T07:15:14.647Z,181.44
2023-08-14T07:16:14.675Z,181.22
2023-08-14T07:17:14.676Z,179.18
2023-08-14T07:18:14.704Z,179.35
2023-08-14T07:19:14.680Z,179.46
2023-08-14T07:20:14.692Z,181.37
2023-08-14T07:21:14.722Z,180.94
2023-08-14T07:22:14.746Z,178.45
2023-08-14T07:23:14.744Z,177.57
2023-08-14T07:24:14.747Z,179.62
2023-08-14T07:25:14.763Z,175.41
2023-08-14T07:26:14.761Z,178.05
2023-08-14T07:27:14.782Z,176.57
2023-08-14T07:28:14.765Z,176.42
2023-08-14T07:30:14.791Z,177.91
2023-08-14T07:31:14.780Z,178.11
2023-08-14T07:32:14.764Z,176.82
2023-08-14T07:33:14.786Z,178.44
2023-08-14T07:34:14.738Z,176.40
2023-08-14T07:35:14.754Z,172.41
2023-08-14T07:36:14.758Z,178.12
2023-08-14T07:37:14.777Z,174.00
2023-08-14T07:38:14.707Z,173.36
2023-08-14T07:39:14.727Z,173.70
2023-08-14T07:40:14.702Z,171.78
2023-08-14T07:41:14.738Z,171.62
2023-08-14T07:42:14.697Z,175.90
2023-08-14T07:43:14.700Z,173.14
2023-08-14T07:44:14.681Z,174.58
2023-08-14T07:45:14.698Z,174.70
2023-08-14T07:46:14.690Z,173.49
2023-08-14T07:47:14.711Z,174.24
2023-08-14T07:48:14.672Z,172.45
2023-08-14T07:49:14.965Z,170.87
2023-08-14T07:50:14.650Z,170.09
2023-08-14T07:51:14.671Z,172.83
2023-08-14T07:52:14.643Z,172.97
2023-08-14T07:53:14.625Z,172.31
2023-08-14T07:54:14.667Z,170.60
2023-08-14T07:55:14.607Z,172.55
2023-08-14T07:56:14.634Z,170.74
2023-08-14T07:57:14.635Z,169.53
2023-08-14T07:58:14.634Z,168.01
2023-08-14T07:59:14.729Z,168.35
2023-08-14T08:00:14.785Z,172.00
2023-08-14T08:01:14.876Z,166.03
2023-08-14T08:02:14.913Z,169.97
2023-08-14T08:03:15.015Z,167.85
2023-08-14T08:04:26.574Z,170.89
2023-08-14T08:05:17.507Z,171.07
2023-08-14T08:06:15.058Z,171.14
2023-08-14T08:07:15.009Z,171.80
2023-08-14T08:08:15.021Z,169.63
2023-08-14T08:09:14.999Z,167.44
2023-08-14T08:10:15.002Z,165.60
2023-08-14T08:11:14.978Z,166.57
2023-08-14T08:12:15.246Z,164.50
2023-08-14T08:13:14.973Z,164.11
2023-08-14T08:14:14.972Z,165.53
2023-08-14T08:15:14.958Z,163.43
2023-08-14T08:16:15.006Z,161.56
2023-08-14T08:17:14.992Z,162.72
2023-08-14T08:18:14.909Z,157.28
2023-08-14T08:19:14.915Z,160.93
2023-08-14T08:20:14.921Z,160.06
2023-08-14T08:21:14.906Z,162.44
2023-08-14T08:22:14.996Z,161.58
2023-08-14T08:23:14.937Z,160.50
2023-08-14T08:24:14.953Z,158.44
2023-08-14T08:25:15.033Z,158.00
2023-08-14T08:26:16.446Z,155.94
2023-08-14T08:27:15.060Z,154.47
2023-08-14T08:28:15.135Z,154.72
2023-08-14T08:29:15.176Z,157.43
2023-08-14T08:30:15.184Z,156.90
2023-08-14T08:31:15.235Z,153.53
2023-08-14T08:32:15.257Z,151.55
2023-08-14T08:33:15.324Z,156.23
2023-08-14T08:34:15.318Z,155.82
2023-08-14T08:35:15.448Z,152.82
2023-08-14T08:36:15.411Z,150.93
2023-08-14T08:37:15.423Z,149.73
2023-08-14T08:38:15.478Z,151.48
2023-08-14T08:39:15.527Z,154.00
2023-08-14T08:40:15.526Z,149.50
2023-08-14T08:41:15.492Z,148.02
2023-08-14T08:42:15.715Z,145.37
2023-08-14T08:43:15.586Z,145.05
2023-08-14T08:44:15.575Z,146.09
2023-08-14T08:45:15.722Z,145.58
2023-08-14T08:46:15.870Z,151.23
2023-08-14T08:47:15.705Z,147.14
2023-08-14T08:48:15.856Z,146.72
2023-08-14T08:49:15.719Z,144.13
2023-08-14T08:50:15.699Z,144.33
2023-08-14T08:51:15.734Z,144.68
2023-08-14T08:52:16.000Z,142.40
2023-08-14T08:53:15.829Z,140.21
2023-08-14T08:54:15.812Z,136.23
2023-08-14T08:55:16.873Z,134.72
2023-08-14T08:56:15.816Z,135.11
2023-08-14T08:57:15.811Z,133.66
2023-08-14T08:58:15.900Z,136.45
2023-08-14T08:59:15.824Z,134.21
2023-08-14T09:00:15.805Z,130.67
2023-08-14T09:01:15.883Z,131.04
2023-08-14T09:02:18.697Z,129.25
2023-08-14T09:03:16.109Z,132.88
2023-08-14T09:04:15.993Z,131.36
2023-08-14T09:05:15.862Z,129.41
2023-08-14T09:06:15.841Z,128.34
2023-08-14T09:07:15.785Z,126.98
2023-08-14T09:08:16.279Z,125.94
2023-08-14T09:09:15.806Z,127.43
2023-08-14T09:10:15.814Z,127.21
2023-08-14T09:11:15.785Z,125.74
2023-08-14T09:12:15.802Z,126.71
2023-08-14T09:13:16.108Z,125.69
2023-08-14T09:14:16.077Z,125.05
2023-08-14T09:15:15.745Z,124.05
2023-08-14T09:16:15.756Z,125.27
2023-08-14T09:17:16.544Z,126.77
2023-08-14T09:18:15.914Z,126.91
2023-08-14T09:19:15.947Z,125.65
2023-08-14T09:20:20.181Z,122.31
2023-08-14T09:21:16.985Z,126.87
2023-08-14T09:22:15.949Z,124.67
2023-08-14T09:23:16.042Z,122.68
2023-08-14T09:24:15.976Z,120.51
2023-08-14T09:25:16.019Z,121.35
2023-08-14T09:26:15.967Z,118.41
2023-08-14T09:27:16.109Z,121.44
2023-08-14T09:28:16.024Z,117.16
2023-08-14T09:30:15.900Z,114.94
2023-08-14T09:31:15.945Z,114.03
2023-08-14T09:32:16.212Z,114.74
2023-08-14T09:33:15.945Z,113.63
2023-08-14T09:34:15.886Z,108.27
2023-08-14T09:35:15.911Z,111.98
2023-08-14T09:36:15.936Z,110.00
2023-08-14T09:37:15.887Z,111.14
2023-08-14T09:38:15.894Z,111.66
2023-08-14T09:39:15.979Z,109.50
2023-08-14T09:40:16.048Z,106.97
2023-08-14T09:41:15.942Z,106.30
2023-08-14T09:42:16.293Z,104.90
2023-08-14T09:43:16.010Z,105.47
2023-08-14T09:44:16.022Z,104.95
2023-08-14T09:45:16.084Z,100.79
2023-08-14T09:46:16.116Z,104.59
2023-08-14T09:47:16.227Z,101.56
2023-08-14T09:48:16.205Z,103.91
2023-08-14T09:49:16.211Z,103.60
2023-08-14T09:50:16.249Z,98.76
2023-08-14T09:51:16.378Z,96.70
2023-08-14T09:52:16.601Z,100.27
2023-08-14T09:53:17.129Z,97.47
2023-08-14T09:54:16.444Z,98.74
2023-08-14T09:55:16.534Z,100.40
2023-08-14T09:56:16.549Z,95.40
2023-08-14T09:57:16.657Z,97.48
2023-08-14T09:58:16.670Z,93.51
2023-08-14T09:59:16.693Z,92.25
2023-08-14T10:00:16.744Z,91.65
2023-08-14T10:01:16.821Z,94.45
2023-08-14T10:02:17.445Z,95.47
2023-08-14T10:03:16.915Z,93.30
2023-08-14T10:04:16.971Z,91.82
2023-08-14T10:05:17.078Z,95.37
2023-08-14T10:06:17.070Z,95.46
2023-08-14T10:07:17.153Z,97.25
2023-08-14T10:08:17.224Z,94.83
2023-08-14T10:09:17.262Z,92.52
2023-08-14T10:10:17.322Z,94.86
2023-08-14T10:11:19.940Z,96.44
2023-08-14T10:12:17.496Z,93.28
2023-08-14T10:13:17.443Z,92.59
2023-08-14T10:14:17.361Z,92.51
2023-08-14T10:15:17.361Z,92.81
2023-08-14T10:16:17.386Z,93.23
2023-08-14T10:17:17.344Z,90.12
2023-08-14T10:18:17.364Z,90.28
2023-08-14T10:19:17.346Z,92.63
2023-08-14T10:20:17.341Z,89.77
2023-08-14T10:21:17.318Z,92.86
2023-08-14T10:22:17.609Z,86.45
2023-08-14T10:23:17.297Z,94.61
2023-08-14T10:24:17.328Z,98.39
2023-08-14T10:25:17.312Z,94.63
2023-08-14T10:26:17.280Z,97.92
2023-08-14T10:27:17.273Z,96.32
2023-08-14T10:28:17.255Z,99.96
2023-08-14T10:29:17.408Z,96.76
2023-08-14T10:30:17.241Z,97.13
2023-08-14T10:31:17.275Z,97.41
2023-08-14T10:32:17.591Z,97.48
2023-08-14T10:33:17.413Z,98.35
2023-08-14T10:34:17.423Z,97.85
2023-08-14T10:35:17.475Z,94.63
2023-08-14T10:36:17.494Z,94.75
2023-08-14T10:37:17.563Z,91.97
2023-08-14T10:39:19.637Z,88.76
2023-08-14T10:40:17.714Z,88.45
2023-08-14T10:41:17.783Z,84.91
2023-08-14T10:42:18.108Z,82.14
2023-08-14T10:43:17.863Z,80.21
2023-08-14T10:44:17.891Z,78.48
2023-08-14T10:45:17.967Z,76.70
2023-08-14T10:46:18.024Z,76.57
2023-08-14T10:47:18.008Z,75.41
2023-08-14T10:48:18.054Z,74.18
2023-08-14T10:49:18.141Z,72.39
2023-08-14T10:50:18.171Z,68.93
2023-08-14T10:51:18.240Z,67.84
2023-08-14T10:52:18.417Z,71.88
2023-08-14T10:53:18.299Z,72.53
2023-08-14T10:54:18.332Z,73.18
2023-08-14T10:55:18.517Z,71.91
2023-08-14T10:56:18.403Z,68.34
2023-08-14T10:57:18.583Z,70.21
2023-08-14T10:58:18.491Z,64.70
2023-08-14T10:59:18.865Z,62.06
2023-08-14T11:00:18.596Z,65.45
2023-08-14T11:01:18.649Z,59.88
2023-08-14T11:02:18.647Z,54.63
2023-08-14T11:03:18.771Z,54.28
2023-08-14T11:04:18.749Z,53.71
2023-08-14T11:05:19.065Z,51.13
2023-08-14T11:06:18.841Z,51.88
2023-08-14T11:07:19.057Z,47.61
2023-08-14T11:08:18.976Z,46.30
2023-08-14T11:09:19.043Z,49.67
2023-08-14T11:10:19.112Z,52.09
2023-08-14T11:11:19.111Z,53.95
2023-08-14T11:12:19.434Z,48.01
2023-08-14T11:13:19.297Z,47.43
2023-08-14T11:14:19.302Z,49.06
2023-08-14T11:15:19.478Z,44.54
2023-08-14T11:16:19.489Z,44.12
2023-08-14T11:17:19.665Z,43.33
2023-08-14T11:18:19.480Z,49.25
2023-08-14T11:19:19.531Z,43.38
2023-08-14T11:20:19.598Z,42.41
2023-08-14T11:21:30.899Z,36.08
2023-08-14T11:22:20.828Z,36.25
2023-08-14T11:23:19.597Z,34.85
2023-08-14T11:24:19.663Z,31.76
2023-08-14T11:25:19.723Z,29.62
2023-08-14T11:26:19.569Z,31.98
2023-08-14T11:27:19.555Z,30.38
2023-08-14T11:28:19.525Z,30.81
2023-08-14T11:29:19.535Z,29.60
2023-08-14T11:30:25.731Z,27.68
2023-08-14T11:31:24.535Z,27.97
2023-08-14T11:32:20.868Z,28.14
2023-08-14T11:33:19.512Z,28.02
2023-08-14T11:34:19.526Z,28.28
2023-08-14T11:35:19.584Z,28.68
2023-08-14T11:36:20.175Z,26.27
2023-08-14T11:37:19.497Z,31.83
2023-08-14T11:38:19.484Z,32.29
2023-08-14T11:39:19.486Z,29.59
2023-08-14T11:40:19.472Z,29.14
2023-08-14T11:41:31.063Z,28.89
2023-08-14T11:42:20.738Z,29.14
2023-08-14T11:43:19.478Z,29.89
2023-08-14T11:44:19.461Z,29.72
2023-08-14T11:45:19.421Z,32.40
2023-08-14T11:46:19.440Z,35.32
2023-08-14T11:47:19.450Z,33.98
2023-08-14T11:48:19.460Z,38.75
2023-08-14T11:49:19.436Z,41.64
2023-08-14T11:50:19.431Z,42.82
2023-08-14T11:51:19.414Z,35.13
2023-08-14T11:52:19.657Z,39.29
2023-08-14T11:53:19.385Z,44.62
2023-08-14T11:54:19.380Z,50.04
2023-08-14T11:55:19.369Z,51.43
2023-08-14T11:56:19.358Z,51.03
2023-08-14T11:57:19.351Z,57.28
2023-08-14T11:58:19.348Z,56.96
2023-08-14T11:59:19.335Z,63.84
2023-08-14T12:00:27.210Z,68.64
2023-08-14T12:01:20.372Z,68.94
2023-08-14T12:02:19.610Z,69.67
2023-08-14T12:03:19.434Z,71.61
2023-08-14T12:04:19.307Z,72.18
2023-08-14T12:05:19.320Z,77.37
2023-08-14T12:06:19.302Z,77.20
2023-08-14T12:07:19.306Z,81.91
2023-08-14T12:08:19.291Z,86.76
2023-08-14T12:09:19.300Z,86.85
2023-08-14T12:10:19.266Z,87.64
2023-08-14T12:11:19.277Z,85.83
2023-08-14T12:12:19.464Z,88.09
2023-08-14T12:13:19.283Z,93.41
2023-08-14T12:14:19.250Z,96.51
2023-08-14T12:15:19.237Z,97.86
2023-08-14T12:16:21.975Z,99.05
2023-08-14T12:17:20.910Z,101.94
2023-08-14T12:18:20.215Z,102.21
2023-08-14T12:19:19.203Z,102.01
2023-08-14T12:20:19.219Z,102.39
2023-08-14T12:21:19.230Z,104.50
2023-08-14T12:22:19.213Z,107.15
2023-08-14T12:23:19.782Z,111.29
2023-08-14T12:24:19.154Z,110.97
2023-08-14T12:25:19.187Z,113.30
2023-08-14T12:26:19.153Z,114.98
2023-08-14T12:27:19.457Z,118.34
2023-08-14T12:28:19.129Z,119.02
2023-08-14T12:29:19.269Z,118.19
2023-08-14T12:30:19.189Z,120.81
2023-08-14T12:31:19.259Z,119.97
2023-08-14T12:32:19.231Z,121.54
2023-08-14T12:33:19.252Z,119.84
2023-08-14T12:34:19.288Z,123.03
2023-08-14T12:35:19.300Z,119.51
2023-08-14T12:36:19.295Z,124.01